Blythe Airport
KBLH : now visible

Airfield :











YOU CAN JOIN US ON...

 
LOGIN :

Register | Disclaimer

   EN    FR    IT 

 









Legend :    VFR   Marginal VFR   IFR   Intensive IFR   Very Intensive IFR
Visi :
Ceiling :
>= 8 km
>= 3000ft
5 to 8 km
1000 to 3000 ft
1500m to 5 km
500 to 1000 ft
800 to 1500m
200 to 500 ft
< 800m
< 200 ft
Symbols :   Thunderstorms  Fog  Heavy snow  Heavy precipitations  Wind > 20 kt







- Airport Elevation : 399 ft


KBLH - Blythe

CURRENT METAR :
  • 210952Z AUTO 17012KT 10SM CLR 15/07 A2979 RMK AO2 SLP083 T01500067

EXPIRED METARs :
  • 210852Z AUTO 16011KT 10SM CLR 16/07 A2980 RMK AO2 SLP086 T01610067 58002
  • 210752Z AUTO 18011KT 10SM CLR 17/06 A2981 RMK AO2 SLP089 T01720061 402780144

TAF KBLH
Valid from the 21 at 06:00 until the 22 at 06:00 UTC


210529Z 2106/2206 21008KT P6SM SKC
FM211700 22018G27KT P6SM FEW250
FM212000 23025G37KT 6SM BLDU FEW250
KZLA FIR / North America



MET'MAP, your aeronautical weather chart ! - Copyright ORBIFLY December 2007 - Disclaimer

ORBIFLY MET'MAP TEAM :

Programming & Development : Alexandra Zaïnal
Concept & Development : Baudouin d'Aumeries
Co-Development & Prog : Marc-Olivier Méhu
Technical & hardware support : Manuel Goepfert

Contact : metmap@orbifly.com




SOURCES & CREDITS :

   NOAA       Earth
Advisory